Time;durP1;ratioP1;P1;durP2;ratioP2;P2;SDS_P1;SDS_P2;PMS_P1;PMS_P2;Temp;Humidity;BMP_temperature;BMP_pressure;BME280_temperature;BME280_humidity;BME280_pressure;Samples;Min_cycle;Max_cycle;Signal;HPM_P1;HPM_P2
2022/01/26 00:06:26;;;;;;;92.60;35.73;;;2.30;99.90;;;;;;5054304;28;20226;-82
2022/01/26 00:08:52;;;;;;;86.73;32.10;;;1.90;99.90;;;;;;5036426;28;20188;-82
2022/01/26 00:11:18;;;;;;;78.73;30.60;;;3.00;99.90;;;;;;5054171;28;20550;-82
2022/01/26 00:13:43;;;;;;;77.03;27.60;;;1.90;99.90;;;;;;5036302;28;20211;-82
2022/01/26 00:16:17;;;;;;;71.93;28.53;;;2.60;99.90;;;;;;5036143;28;20671;-82
2022/01/26 00:18:43;;;;;;;70.13;26.50;;;1.90;99.90;;;;;;5021255;28;20555;-82
2022/01/26 00:21:16;;;;;;;75.70;28.00;;;;;;;;;;5019745;28;20180;-82
2022/01/26 00:26:30;;;;;;;76.90;31.60;;;3.30;99.90;;;;;;5061743;28;20286;-81
2022/01/26 00:39:34;;;;;;;62.17;25.07;;;3.20;99.90;;;;;;5039188;28;20191;-83
2022/01/26 00:42:00;;;;;;;69.27;27.20;;;1.90;99.90;;;;;;5019769;28;20179;-83
2022/01/26 00:44:38;;;;;;;65.00;22.87;;;1.90;99.90;;;;;;5053892;28;20187;-82
2022/01/26 00:47:04;;;;;;;64.87;23.93;;;3.70;99.90;;;;;;5035916;28;20183;-83
2022/01/26 00:49:30;;;;;;;61.40;24.03;;;1.90;99.90;;;;;;5019599;28;20210;-83
2022/01/26 00:51:56;;;;;;;73.30;26.43;;;2.10;99.90;;;;;;5019334;28;20179;-84
2022/01/26 00:54:21;;;;;;;57.47;24.93;;;2.90;99.90;;;;;;5019156;28;20316;-84
2022/01/26 00:56:48;;;;;;;54.23;20.13;;;1.90;99.90;;;;;;5035744;28;20249;-83
2022/01/26 00:59:14;;;;;;;76.77;26.33;;;1.90;99.90;;;;;;5035516;28;20240;-84
2022/01/26 01:01:39;;;;;;;66.67;24.87;;;1.90;99.90;;;;;;5035819;28;20608;-84
2022/01/26 01:04:05;;;;;;;74.03;27.47;;;2.20;99.90;;;;;;5054077;28;20670;-84
2022/01/26 01:06:39;;;;;;;67.70;26.63;;;3.60;99.90;;;;;;5019043;28;20238;-84
2022/01/26 01:09:05;;;;;;;71.23;25.53;;;1.80;99.90;;;;;;5036066;28;20209;-84
2022/01/26 01:11:30;;;;;;;67.10;24.10;;;2.90;99.90;;;;;;5035456;28;20215;-84
2022/01/26 01:13:57;;;;;;;64.50;25.03;;;2.00;99.90;;;;;;5036365;28;20206;-84
2022/01/26 01:16:24;;;;;;;75.73;27.03;;;4.00;99.90;;;;;;5036747;28;20701;-84
2022/01/26 01:19:00;;;;;;;80.97;29.03;;;1.80;99.90;;;;;;5036470;28;20192;-84
2022/01/26 01:31:57;;;;;;;68.00;26.40;;;1.80;99.90;;;;;;5059541;28;20206;-84
2022/01/26 01:34:27;;;;;;;65.87;25.53;;;1.80;99.90;;;;;;5059211;28;20214;-84
2022/01/26 01:36:54;;;;;;;69.43;28.10;;;1.80;99.90;;;;;;5057103;28;20176;-84
2022/01/26 01:39:22;;;;;;;74.97;23.57;;;2.40;99.90;;;;;;5042930;28;20176;-84
2022/01/26 01:41:50;;;;;;;61.07;22.47;;;1.80;99.90;;;;;;5036547;28;20239;-84
2022/01/26 01:44:16;;;;;;;58.33;21.97;;;1.90;99.90;;;;;;5054009;28;20187;-85
2022/01/26 01:46:42;;;;;;;64.43;26.20;;;2.20;99.90;;;;;;5020397;28;20183;-83
2022/01/26 01:49:10;;;;;;;67.57;24.43;;;1.80;99.90;;;;;;5053668;28;20213;-83
2022/01/26 01:51:40;;;;;;;72.03;25.23;;;1.70;99.90;;;;;;5053452;28;20267;-83
2022/01/26 01:54:13;;;;;;;74.20;26.17;;;3.70;99.90;;;;;;5035055;28;20263;-83
2022/01/26 01:56:41;;;;;;;68.03;24.07;;;1.80;99.90;;;;;;5035113;28;20714;-83
2022/01/26 01:59:07;;;;;;;75.77;25.33;;;3.30;99.90;;;;;;5035509;28;20186;-83
2022/01/26 02:01:33;;;;;;;65.93;23.90;;;1.80;99.90;;;;;;5034794;28;20275;-84
2022/01/26 02:03:59;;;;;;;68.23;24.47;;;2.60;99.90;;;;;;5035719;28;20688;-84
2022/01/26 02:06:24;;;;;;;63.60;24.30;;;1.80;99.90;;;;;;5018985;28;20288;-83
2022/01/26 02:08:50;;;;;;;62.07;23.07;;;;;;;;;;5035488;28;20198;-83
2022/01/26 02:11:16;;;;;;;67.67;24.07;;;;;;;;;;5052889;28;20222;-83
2022/01/26 02:13:53;;;;;;;66.93;26.67;;;1.80;99.90;;;;;;5035045;28;20254;-83
2022/01/26 02:16:27;;;;;;;82.53;27.90;;;1.80;99.90;;;;;;5036555;28;20190;-87
2022/01/26 02:56:28;;;;;;;67.00;28.17;;;2.10;99.90;;;;;;5056163;28;20219;-83
2022/01/26 03:06:38;;;;;;;57.43;22.73;;;1.90;99.90;;;;;;5056778;28;20278;-83
2022/01/26 03:09:11;;;;;;;53.37;21.60;;;;;;;;;;5040156;28;20179;-82
2022/01/26 03:11:39;;;;;;;55.93;23.20;;;;;;;;;;5022951;28;20220;-82
2022/01/26 03:14:16;;;;;;;54.70;23.90;;;;;;;;;;5038896;28;20210;-82
2022/01/26 03:16:47;;;;;;;59.70;23.80;;;;;;;;;;5025477;28;20643;-82
2022/01/26 03:19:24;;;;;;;61.17;23.97;;;1.70;99.90;;;;;;5025316;28;20184;-83
2022/01/26 03:22:19;;;;;;;52.03;22.07;;;3.60;99.90;;;;;;5040366;28;20196;-83
2022/01/26 03:30:19;;;;;;;69.30;25.53;;;1.70;99.90;;;;;;5039239;28;20201;-82
2022/01/26 03:35:54;;;;;;;59.27;22.30;;;1.70;99.90;;;;;;5054980;28;20251;-87
2022/01/26 03:38:23;;;;;;;53.63;23.07;;;1.70;99.90;;;;;;5054653;28;20633;-82
2022/01/26 03:40:59;;;;;;;57.53;23.80;;;;;;;;;;5055115;28;20195;-82
2022/01/26 03:43:25;;;;;;;56.60;23.30;;;1.70;99.90;;;;;;5023453;28;20210;-82
2022/01/26 03:45:50;;;;;;;52.63;21.13;;;1.60;99.90;;;;;;5037868;28;20558;-83
2022/01/26 03:48:16;;;;;;;49.20;19.67;;;1.60;99.90;;;;;;5037870;28;20537;-82
2022/01/26 03:50:42;;;;;;;61.47;25.77;;;1.90;99.90;;;;;;5037064;28;20183;-83
2022/01/26 03:53:10;;;;;;;60.37;25.90;;;2.00;99.90;;;;;;5038543;28;20662;-83
2022/01/26 03:55:46;;;;;;;50.83;22.83;;;1.60;99.90;;;;;;5038562;28;20199;-82
2022/01/26 03:58:17;;;;;;;51.37;22.37;;;;;;;;;;5057660;28;20175;-82
2022/01/26 04:01:13;;;;;;;50.97;22.00;;;1.60;99.90;;;;;;5041009;28;20213;-81
2022/01/26 04:04:10;;;;;;;48.53;20.23;;;1.50;99.90;;;;;;5038057;28;20172;-82
2022/01/26 04:06:36;;;;;;;50.57;22.97;;;2.10;99.90;;;;;;5056077;28;20183;-84
2022/01/26 04:09:06;;;;;;;47.83;19.20;;;1.60;99.90;;;;;;5037415;28;20183;-82
2022/01/26 04:11:46;;;;;;;45.17;20.17;;;1.70;99.90;;;;;;5055195;28;20649;-83
2022/01/26 04:14:16;;;;;;;42.60;17.13;;;1.70;99.90;;;;;;5059751;28;20203;-84
2022/01/26 04:16:43;;;;;;;42.57;18.43;;;1.60;99.90;;;;;;5061565;28;20174;-84
2022/01/26 04:19:09;;;;;;;40.17;17.43;;;2.50;99.90;;;;;;5038440;28;20186;-83
2022/01/26 04:24:26;;;;;;;38.90;18.10;;;2.00;99.90;;;;;;5039166;28;20279;-82
2022/01/26 04:27:03;;;;;;;40.13;18.20;;;1.50;99.90;;;;;;5035749;28;20242;-82
2022/01/26 04:29:50;;;;;;;38.30;17.93;;;1.50;99.90;;;;;;5038055;28;20176;-82
2022/01/26 04:32:17;;;;;;;37.17;18.63;;;1.50;99.90;;;;;;5053960;28;20182;-82
2022/01/26 04:34:45;;;;;;;39.67;20.70;;;2.30;99.90;;;;;;5053538;28;20206;-82
2022/01/26 04:39:46;;;;;;;44.30;19.90;;;1.50;99.90;;;;;;5053915;28;20648;-85
2022/01/26 04:42:20;;;;;;;41.73;19.93;;;1.60;99.90;;;;;;5016511;28;20242;-82
2022/01/26 04:45:08;;;;;;;44.00;17.97;;;1.80;99.90;;;;;;5032853;28;20201;-82
2022/01/26 04:47:34;;;;;;;42.53;17.90;;;1.30;99.90;;;;;;5034655;28;20186;-83
2022/01/26 04:50:00;;;;;;;41.53;17.90;;;1.30;99.90;;;;;;5037241;28;20245;-83
2022/01/26 04:52:26;;;;;;;35.40;16.13;;;2.00;99.90;;;;;;5042777;28;20270;-84
2022/01/26 04:54:52;;;;;;;32.17;17.13;;;1.20;99.90;;;;;;5051614;28;20267;-82
2022/01/26 04:57:18;;;;;;;35.53;15.77;;;3.00;99.90;;;;;;5035207;28;20187;-84
2022/01/26 04:59:44;;;;;;;36.80;16.20;;;;;;;;;;5038429;28;20200;-83
2022/01/26 05:02:29;;;;;;;31.13;15.47;;;1.20;99.90;;;;;;5050916;28;20192;-84
2022/01/26 05:04:55;;;;;;;31.37;15.30;;;1.80;99.90;;;;;;5051754;28;20198;-84
2022/01/26 05:07:21;;;;;;;35.27;16.40;;;1.10;99.90;;;;;;5034089;28;20187;-84
2022/01/26 05:09:46;;;;;;;38.73;16.10;;;2.70;99.90;;;;;;5051417;28;20184;-84
2022/01/26 05:12:13;;;;;;;28.80;13.93;;;1.20;99.90;;;;;;5032609;28;20242;-83
2022/01/26 05:14:41;;;;;;;32.80;15.60;;;1.10;99.90;;;;;;5033837;28;20199;-83
2022/01/26 05:17:07;;;;;;;34.97;16.60;;;;;;;;;;5033518;28;20241;-83
2022/01/26 05:19:33;;;;;;;32.63;15.67;;;1.10;99.90;;;;;;5033718;28;20666;-83
2022/01/26 05:21:59;;;;;;;33.97;15.13;;;2.70;99.90;;;;;;5013944;28;20299;-83
2022/01/26 05:24:24;;;;;;;40.77;17.30;;;1.00;99.90;;;;;;5044004;28;20647;-83
2022/01/26 05:26:50;;;;;;;38.57;17.07;;;2.90;99.90;;;;;;5033157;28;20239;-84
2022/01/26 05:29:16;;;;;;;40.13;17.40;;;1.20;99.90;;;;;;5051369;28;20564;-84
2022/01/26 05:31:41;;;;;;;38.27;16.70;;;1.00;99.90;;;;;;5017352;28;20192;-82
2022/01/26 05:34:07;;;;;;;40.20;16.73;;;1.00;99.90;;;;;;5035531;28;20738;-84
2022/01/26 05:36:32;;;;;;;42.80;17.00;;;1.80;99.90;;;;;;5018787;28;20196;-86
2022/01/26 05:38:58;;;;;;;45.80;17.37;;;1.10;99.90;;;;;;5020618;28;20192;-84
2022/01/26 05:41:24;;;;;;;43.30;18.03;;;2.40;99.90;;;;;;5051490;28;20216;-84
2022/01/26 05:43:49;;;;;;;40.07;17.73;;;2.30;99.90;;;;;;5034419;28;20652;-86
2022/01/26 05:46:24;;;;;;;43.40;18.03;;;1.10;99.90;;;;;;5052191;28;20195;-87
2022/01/26 05:48:51;;;;;;;50.73;21.37;;;1.80;99.90;;;;;;5053745;28;20643;-84
2022/01/26 05:51:17;;;;;;;46.33;19.30;;;2.60;99.90;;;;;;5033924;28;20215;-82
2022/01/26 05:53:43;;;;;;;65.73;26.37;;;2.40;99.90;;;;;;5021720;28;20242;-84
2022/01/26 05:56:09;;;;;;;72.13;25.43;;;1.00;99.90;;;;;;5053460;28;20187;-85
2022/01/26 05:58:35;;;;;;;70.53;25.20;;;2.80;99.90;;;;;;5038035;28;20574;-83
2022/01/26 06:01:01;;;;;;;92.63;30.00;;;2.10;99.90;;;;;;5042866;28;20183;-84
2022/01/26 06:03:30;;;;;;;81.13;29.37;;;1.10;99.90;;;;;;5044909;28;20186;-84
2022/01/26 06:05:58;;;;;;;77.33;28.33;;;2.80;99.90;;;;;;5056800;28;20209;-84
2022/01/26 06:08:24;;;;;;;80.77;27.03;;;1.30;99.90;;;;;;5038734;28;20182;-84
2022/01/26 06:10:51;;;;;;;79.40;27.73;;;1.30;99.90;;;;;;5022298;28;20279;-84
2022/01/26 06:13:17;;;;;;;79.27;28.10;;;2.00;99.90;;;;;;5038426;28;20215;-84
2022/01/26 06:15:43;;;;;;;80.47;26.67;;;2.90;99.90;;;;;;5057043;28;20240;-85
2022/01/26 06:18:10;;;;;;;85.17;24.93;;;;;;;;;;5057031;28;20179;-85
2022/01/26 06:20:35;;;;;;;100.23;28.97;;;1.50;99.90;;;;;;5038535;28;20233;-84
2022/01/26 06:23:03;;;;;;;91.90;26.80;;;3.00;99.90;;;;;;5056235;28;20271;-85
2022/01/26 06:25:30;;;;;;;88.37;26.87;;;1.70;99.90;;;;;;5056698;28;20186;-85
2022/01/26 06:27:58;;;;;;;95.20;28.37;;;1.60;99.90;;;;;;5056503;28;20279;-84
2022/01/26 06:30:24;;;;;;;93.83;27.10;;;2.80;99.90;;;;;;5038923;28;20191;-83
2022/01/26 06:32:50;;;;;;;90.67;28.57;;;1.40;99.90;;;;;;5056094;28;20238;-84
2022/01/26 06:35:16;;;;;;;80.53;27.13;;;1.70;99.90;;;;;;5054261;28;20268;-83
2022/01/26 06:37:43;;;;;;;95.10;27.83;;;1.60;99.90;;;;;;5055614;28;20227;-84
2022/01/26 06:40:09;;;;;;;84.30;29.17;;;1.60;99.90;;;;;;5033889;28;20215;-82
2022/01/26 06:42:48;;;;;;;72.63;26.80;;;1.70;99.90;;;;;;5036762;28;20633;-83
2022/01/26 06:45:16;;;;;;;90.77;30.40;;;3.40;99.90;;;;;;5020845;28;20225;-83
2022/01/26 06:47:56;;;;;;;86.20;27.17;;;1.70;99.90;;;;;;5040961;28;20191;-82
2022/01/26 06:50:22;;;;;;;94.80;29.73;;;3.10;99.90;;;;;;5037675;28;20372;-83
2022/01/26 06:52:48;;;;;;;91.10;29.40;;;1.70;99.90;;;;;;5037856;28;20302;-85
2022/01/26 06:55:15;;;;;;;80.80;28.63;;;1.80;99.90;;;;;;5055576;28;20190;-86
2022/01/26 06:57:41;;;;;;;90.07;29.73;;;1.70;99.90;;;;;;5037688;28;20182;-83
2022/01/26 07:00:08;;;;;;;83.70;29.70;;;2.30;99.90;;;;;;5066314;28;20176;-83
2022/01/26 07:02:33;;;;;;;83.27;29.33;;;1.70;99.90;;;;;;5027560;28;20291;-82
2022/01/26 07:04:59;;;;;;;82.00;30.30;;;1.70;99.90;;;;;;5048954;28;20739;-81
2022/01/26 07:07:25;;;;;;;85.60;30.87;;;3.30;99.90;;;;;;5046753;28;20262;-82
2022/01/26 07:09:50;;;;;;;95.53;30.63;;;1.80;99.90;;;;;;5030754;28;20187;-83
2022/01/26 07:12:16;;;;;;;97.00;31.53;;;2.40;99.90;;;;;;5020972;28;20184;-82
2022/01/26 07:22:55;;;;;;;92.07;32.07;;;1.70;99.90;;;;;;5075343;28;20648;-83
2022/01/26 07:25:21;;;;;;;89.93;32.40;;;;;;;;;;5057740;28;20219;-82
2022/01/26 07:27:47;;;;;;;84.73;28.90;;;1.80;99.90;;;;;;5040328;28;20699;-83
2022/01/26 07:30:12;;;;;;;76.27;28.70;;;1.80;99.90;;;;;;5075209;28;20179;-81
2022/01/26 07:32:38;;;;;;;88.70;33.17;;;1.80;99.90;;;;;;5075373;28;20572;-83
2022/01/26 07:35:05;;;;;;;83.30;29.53;;;1.70;99.90;;;;;;5057188;28;20180;-82
2022/01/26 07:37:31;;;;;;;87.70;34.00;;;1.70;99.90;;;;;;5075016;28;20172;-82
2022/01/26 07:40:04;;;;;;;88.33;30.97;;;2.00;99.90;;;;;;5075021;28;20262;-82
2022/01/26 07:42:30;;;;;;;76.07;28.37;;;;;;;;;;5077268;28;20206;-81
2022/01/26 07:44:56;;;;;;;72.87;28.30;;;;;;;;;;5057401;28;20190;-82
2022/01/26 07:47:23;;;;;;;70.47;28.97;;;1.80;99.90;;;;;;5075073;28;20183;-83
2022/01/26 07:49:55;;;;;;;89.63;31.80;;;4.40;99.90;;;;;;5057617;28;20570;-82
2022/01/26 07:52:21;;;;;;;91.83;37.20;;;1.80;99.90;;;;;;5062225;28;20660;-81
2022/01/26 07:54:50;;;;;;;94.03;32.37;;;1.80;99.90;;;;;;5054260;28;20254;-81
2022/01/26 07:57:18;;;;;;;82.63;31.40;;;1.80;99.90;;;;;;5055092;28;20180;-82
2022/01/26 07:59:43;;;;;;;75.73;29.73;;;1.80;99.90;;;;;;5041296;28;20183;-82
2022/01/26 08:02:09;;;;;;;66.23;24.33;;;3.30;99.90;;;;;;5048603;28;20176;-81
2022/01/26 08:04:35;;;;;;;72.73;26.73;;;1.90;99.90;;;;;;5059759;28;20183;-82
2022/01/26 08:07:01;;;;;;;69.60;22.23;;;2.90;99.90;;;;;;5054721;28;20176;-82
2022/01/26 08:09:26;;;;;;;71.00;25.93;;;2.00;99.90;;;;;;5036150;28;20255;-82
2022/01/26 08:11:52;;;;;;;74.93;28.50;;;3.00;99.90;;;;;;5054039;28;20176;-83
2022/01/26 08:14:18;;;;;;;73.70;27.63;;;3.40;99.90;;;;;;5035895;28;20563;-82
2022/01/26 08:16:45;;;;;;;65.03;26.17;;;3.50;99.90;;;;;;5036412;28;20181;-83
2022/01/26 08:19:13;;;;;;;76.73;27.10;;;2.20;99.90;;;;;;5043748;28;20174;-83
2022/01/26 08:21:39;;;;;;;71.37;27.77;;;3.30;99.90;;;;;;5073547;28;20190;-82
2022/01/26 08:24:13;;;;;;;67.93;26.73;;;3.20;99.90;;;;;;5072558;28;20191;-82
2022/01/26 08:26:48;;;;;;;64.60;25.63;;;1.80;99.90;;;;;;5042221;28;20227;-80
2022/01/26 08:29:20;;;;;;;66.37;27.67;;;1.80;99.90;;;;;;5029689;28;20183;-83
2022/01/26 08:31:46;;;;;;;71.10;27.03;;;3.50;99.90;;;;;;5054339;28;20190;-82
2022/01/26 08:34:12;;;;;;;68.37;27.37;;;2.50;99.90;;;;;;5054356;28;20215;-83
2022/01/26 08:36:38;;;;;;;69.67;27.60;;;1.80;99.90;;;;;;4999538;28;20188;-82
2022/01/26 08:39:04;;;;;;;84.60;30.23;;;1.80;99.90;;;;;;4999791;28;20280;-82
2022/01/26 08:41:30;;;;;;;69.30;27.07;;;1.70;99.90;;;;;;5034180;28;20184;-81
2022/01/26 08:43:57;;;;;;;88.57;33.03;;;2.60;99.90;;;;;;5000434;28;20663;-82
2022/01/26 08:46:23;;;;;;;74.77;30.23;;;1.80;99.90;;;;;;5017089;28;20223;-80
2022/01/26 08:48:49;;;;;;;71.50;30.40;;;4.20;99.90;;;;;;5016939;28;20185;-82
2022/01/26 08:51:17;;;;;;;78.03;33.73;;;1.80;99.90;;;;;;5016507;28;20226;-80
2022/01/26 08:53:43;;;;;;;76.57;31.73;;;;;;;;;;5016585;28;20673;-83
2022/01/26 08:56:08;;;;;;;76.27;30.87;;;1.80;99.90;;;;;;5015981;28;20267;-83
2022/01/26 08:58:34;;;;;;;72.60;29.10;;;1.80;99.90;;;;;;5000106;28;20694;-79
2022/01/26 09:01:00;;;;;;;83.87;31.57;;;1.70;99.90;;;;;;4999798;28;20271;-81
2022/01/26 09:03:25;;;;;;;74.07;30.70;;;1.70;99.90;;;;;;5015865;28;20212;-81
2022/01/26 09:05:52;;;;;;;72.37;31.67;;;3.30;99.90;;;;;;5016655;28;20176;-81
2022/01/26 09:08:18;;;;;;;76.80;30.10;;;1.70;99.90;;;;;;5016307;28;20177;-81
2022/01/26 09:10:44;;;;;;;83.23;30.17;;;3.00;99.90;;;;;;5016171;28;20220;-81
2022/01/26 09:13:10;;;;;;;75.40;31.50;;;1.80;99.90;;;;;;5015838;28;20293;-85
2022/01/26 09:15:39;;;;;;;68.93;30.53;;;2.50;99.90;;;;;;5015797;28;20663;-82
2022/01/26 09:18:06;;;;;;;81.73;32.40;;;1.90;99.90;;;;;;5033073;28;20585;-82
2022/01/26 09:20:38;;;;;;;75.33;30.53;;;1.90;99.90;;;;;;5025471;28;20236;-82
2022/01/26 09:23:04;;;;;;;69.10;29.00;;;1.90;99.90;;;;;;5042519;28;20261;-81
2022/01/26 09:25:29;;;;;;;82.03;31.53;;;1.90;99.90;;;;;;5048949;28;20244;-83
2022/01/26 09:27:56;;;;;;;75.03;33.13;;;1.90;99.90;;;;;;5029815;28;20620;-82
2022/01/26 09:30:22;;;;;;;69.30;29.70;;;;;;;;;;5045923;28;20188;-83
2022/01/26 09:32:48;;;;;;;74.50;30.70;;;1.90;99.90;;;;;;5065217;28;20656;-82
2022/01/26 09:35:14;;;;;;;77.90;30.70;;;3.30;99.90;;;;;;5034948;28;20267;-83
2022/01/26 09:37:41;;;;;;;78.80;32.70;;;2.00;99.90;;;;;;5052639;28;20188;-83
2022/01/26 09:40:07;;;;;;;74.47;31.37;;;2.00;99.90;;;;;;5036455;28;20617;-84
2022/01/26 09:42:35;;;;;;;77.97;31.53;;;2.00;99.90;;;;;;5045676;28;20320;-82
2022/01/26 09:45:04;;;;;;;70.07;31.17;;;2.00;99.90;;;;;;5046072;28;20177;-84
2022/01/26 09:47:30;;;;;;;71.50;28.33;;;2.00;99.90;;;;;;5034364;28;20180;-84
2022/01/26 09:49:55;;;;;;;68.23;26.60;;;3.10;99.90;;;;;;5045057;28;20234;-82
2022/01/26 09:52:47;;;;;;;69.43;29.10;;;2.10;99.90;;;;;;5062147;28;20179;-84
2022/01/26 09:55:09;;;;;;;65.47;30.77;;;2.10;99.90;;;;;;5049399;28;20187;-84
2022/01/26 09:57:38;;;;;;;73.47;30.47;;;2.10;99.90;;;;;;5056909;28;20271;-83
2022/01/26 10:00:05;;;;;;;72.87;32.67;;;2.10;99.90;;;;;;5064088;28;20258;-84
2022/01/26 10:02:33;;;;;;;80.47;32.10;;;2.20;99.90;;;;;;5049197;28;20203;-82
2022/01/26 10:05:04;;;;;;;66.00;29.37;;;3.00;99.90;;;;;;5069696;28;20230;-82
2022/01/26 10:15:30;;;;;;;69.13;30.60;;;2.20;99.90;;;;;;5088016;28;20186;-87
2022/01/26 10:18:04;;;;;;;66.60;30.30;;;3.30;99.90;;;;;;5062167;28;20190;-84
2022/01/26 10:20:45;;;;;;;67.73;30.60;;;2.10;99.90;;;;;;5074476;28;20168;-83
2022/01/26 10:23:18;;;;;;;60.30;27.77;;;2.10;99.90;;;;;;5067157;28;20195;-87
2022/01/26 10:25:54;;;;;;;62.70;26.27;;;2.20;99.90;;;;;;5047805;28;20334;-84
2022/01/26 10:28:20;;;;;;;58.00;25.63;;;2.20;99.90;;;;;;5042818;28;20172;-85
2022/01/26 10:30:47;;;;;;;58.20;26.77;;;2.30;99.90;;;;;;5052639;28;20651;-85
2022/01/26 10:33:14;;;;;;;51.73;25.30;;;2.60;99.90;;;;;;5052582;28;20235;-84
2022/01/26 10:35:40;;;;;;;55.83;23.27;;;3.00;99.90;;;;;;5052424;28;20198;-84
2022/01/26 10:38:06;;;;;;;52.00;23.10;;;2.20;99.90;;;;;;5034970;28;20620;-84
2022/01/26 10:40:32;;;;;;;55.20;26.27;;;3.00;99.90;;;;;;5052651;28;20176;-82
2022/01/26 10:43:05;;;;;;;38.83;19.43;;;2.20;99.90;;;;;;5035957;28;20210;-81
2022/01/26 10:46:04;;;;;;;49.57;23.13;;;2.20;99.90;;;;;;5057359;28;20190;-83
2022/01/26 10:48:39;;;;;;;47.57;20.07;;;2.20;99.90;;;;;;5056447;28;20164;-82
2022/01/26 10:53:48;;;;;;;37.30;22.00;;;2.40;99.90;;;;;;5056310;28;20212;-82
2022/01/26 10:56:16;;;;;;;43.93;19.80;;;3.80;99.90;;;;;;5037997;28;20674;-81
2022/01/26 10:58:42;;;;;;;34.33;17.17;;;2.40;99.90;;;;;;5056175;28;20339;-81
2022/01/26 11:01:08;;;;;;;34.13;17.23;;;3.50;99.90;;;;;;5055792;28;20183;-81
2022/01/26 11:03:34;;;;;;;43.40;18.93;;;2.60;99.90;;;;;;5055613;28;20176;-81
2022/01/26 11:06:08;;;;;;;40.87;17.80;;;2.40;99.90;;;;;;5038693;28;20195;-80
2022/01/26 11:08:40;;;;;;;30.80;16.30;;;2.40;99.90;;;;;;5037896;28;20184;-80
2022/01/26 11:11:06;;;;;;;37.87;18.13;;;2.50;99.90;;;;;;5055519;28;20187;-81
2022/01/26 11:13:39;;;;;;;32.20;16.00;;;2.50;99.90;;;;;;5021061;28;20215;-81
2022/01/26 11:16:13;;;;;;;37.90;18.23;;;2.50;99.90;;;;;;5038550;28;20277;-83
2022/01/26 11:18:53;;;;;;;33.50;17.30;;;2.50;99.90;;;;;;5056305;28;20173;-82
2022/01/26 11:21:31;;;;;;;31.53;16.60;;;2.50;99.90;;;;;;5042221;28;20191;-82
2022/01/26 11:24:18;;;;;;;38.30;18.87;;;2.50;99.90;;;;;;5043245;28;20207;-83
2022/01/26 11:26:45;;;;;;;40.77;18.67;;;2.50;99.90;;;;;;5053786;28;20349;-81
2022/01/26 11:29:22;;;;;;;33.27;16.97;;;3.80;99.90;;;;;;5041289;28;20648;-79
2022/01/26 11:32:00;;;;;;;35.53;17.40;;;2.60;99.90;;;;;;5052341;28;20181;-83
2022/01/26 11:34:27;;;;;;;29.60;15.77;;;2.60;99.90;;;;;;5053051;28;20229;-85
2022/01/26 11:36:58;;;;;;;33.07;16.43;;;2.50;99.90;;;;;;5041663;28;20180;-83
2022/01/26 11:42:32;;;;;;;31.83;15.20;;;2.60;99.90;;;;;;5054240;28;20296;-83
2022/01/26 11:45:13;;;;;;;30.83;15.20;;;3.00;99.90;;;;;;5056076;28;20180;-81
2022/01/26 11:48:11;;;;;;;23.10;12.83;;;2.70;99.90;;;;;;5067233;28;20176;-86
2022/01/26 11:50:42;;;;;;;27.83;12.93;;;3.00;99.90;;;;;;5061749;28;20260;-82
2022/01/26 11:53:11;;;;;;;26.70;14.27;;;3.00;99.90;;;;;;5055215;28;20201;-83
2022/01/26 11:55:48;;;;;;;27.13;15.03;;;2.80;99.90;;;;;;5054065;28;20203;-83
2022/01/26 11:58:16;;;;;;;29.03;13.97;;;3.00;99.90;;;;;;5054140;28;20204;-82
2022/01/26 12:03:22;;;;;;;23.40;11.50;;;2.90;99.90;;;;;;5055376;28;20180;-81
2022/01/26 12:05:49;;;;;;;18.47;9.40;;;3.30;99.90;;;;;;5053383;28;20189;-81
2022/01/26 12:08:25;;;;;;;22.97;11.97;;;3.60;99.90;;;;;;5053337;28;20190;-81
2022/01/26 12:10:52;;;;;;;24.10;12.40;;;2.80;99.90;;;;;;5053445;28;20183;-82
2022/01/26 12:13:21;;;;;;;19.90;10.93;;;2.80;99.90;;;;;;5020402;28;20576;-82
2022/01/26 12:16:05;;;;;;;23.47;11.97;;;2.80;99.90;;;;;;5020723;28;20195;-83
2022/01/26 12:18:36;;;;;;;16.93;9.33;;;2.70;99.90;;;;;;5058498;28;20240;-82
2022/01/26 12:35:17;;;;;;;19.13;10.53;;;3.60;99.90;;;;;;5034780;28;20191;-80
2022/01/26 12:38:10;;;;;;;18.73;10.07;;;3.30;99.90;;;;;;5034303;28;20226;-81
2022/01/26 12:44:08;;;;;;;26.97;12.27;;;3.10;99.90;;;;;;5035165;28;20258;-81
2022/01/26 12:46:36;;;;;;;21.40;10.70;;;3.00;99.90;;;;;;4973044;28;20184;-81
2022/01/26 12:49:15;;;;;;;24.53;10.87;;;3.00;99.90;;;;;;5020674;28;20203;-81
2022/01/26 12:52:01;;;;;;;23.13;12.30;;;2.90;99.90;;;;;;5016180;28;20579;-80
2022/01/26 12:54:27;;;;;;;26.90;12.47;;;2.80;99.90;;;;;;5017092;28;20220;-82
2022/01/26 12:57:03;;;;;;;24.20;11.83;;;4.10;99.90;;;;;;5033707;28;20188;-83
2022/01/26 12:59:29;;;;;;;19.13;10.70;;;3.90;99.90;;;;;;5016391;28;20219;-82
2022/01/26 13:01:56;;;;;;;25.10;12.10;;;2.80;99.90;;;;;;4999503;28;20186;-83
2022/01/26 13:04:22;;;;;;;21.17;11.70;;;2.80;99.90;;;;;;5033639;28;20213;-84
2022/01/26 13:06:51;;;;;;;21.13;11.50;;;2.70;99.90;;;;;;5015490;28;20181;-83
2022/01/26 13:09:21;;;;;;;25.53;11.70;;;2.70;99.90;;;;;;5016329;28;20275;-83
2022/01/26 13:11:49;;;;;;;19.27;10.60;;;2.70;99.90;;;;;;5016191;28;20230;-83
2022/01/26 13:14:42;;;;;;;23.73;12.20;;;4.50;99.90;;;;;;5033359;28;20206;-83
2022/01/26 13:27:31;;;;;;;20.03;11.40;;;4.00;99.90;;;;;;5041606;28;20274;-81
2022/01/26 13:30:18;;;;;;;22.10;10.73;;;4.00;99.90;;;;;;5052122;28;20212;-83
2022/01/26 13:35:53;;;;;;;25.23;13.30;;;;;;;;;;5053861;28;20230;-80
2022/01/26 13:46:41;;;;;;;22.03;11.97;;;2.30;99.90;;;;;;5053060;28;20168;-82
2022/01/26 13:49:16;;;;;;;19.13;10.03;;;3.80;99.90;;;;;;5053029;28;20192;-81
2022/01/26 13:52:01;;;;;;;25.10;12.20;;;;;;;;;;5052680;28;20160;-82
2022/01/26 13:57:25;;;;;;;26.10;10.50;;;2.10;99.90;;;;;;5053184;28;20210;-82
2022/01/26 13:59:54;;;;;;;23.87;10.87;;;2.40;99.90;;;;;;5052974;28;20164;-81
2022/01/26 14:02:19;;;;;;;21.80;11.73;;;2.10;99.90;;;;;;5035745;28;20184;-81
2022/01/26 14:04:45;;;;;;;27.70;13.50;;;3.70;99.90;;;;;;5052843;28;20206;-81
2022/01/26 14:07:10;;;;;;;26.43;12.00;;;2.10;99.90;;;;;;5043063;28;20566;-81
2022/01/26 14:09:37;;;;;;;24.67;11.30;;;2.10;99.90;;;;;;5021851;28;20183;-81
2022/01/26 14:12:05;;;;;;;23.13;11.37;;;2.80;99.90;;;;;;5054120;28;20279;-82
2022/01/26 14:14:41;;;;;;;27.57;11.37;;;2.10;99.90;;;;;;5052925;28;20304;-81
2022/01/26 14:17:14;;;;;;;22.47;11.00;;;2.10;99.90;;;;;;5034003;28;20187;-82
2022/01/26 14:20:06;;;;;;;26.23;12.13;;;2.00;99.90;;;;;;5041014;28;20671;-83
2022/01/26 14:25:27;;;;;;;24.97;12.33;;;1.90;99.90;;;;;;4994209;28;20545;-81
2022/01/26 14:27:56;;;;;;;23.70;12.53;;;1.90;99.90;;;;;;5041024;28;20248;-81
2022/01/26 14:30:33;;;;;;;30.27;13.87;;;3.40;99.90;;;;;;4999959;28;20185;-82
2022/01/26 14:40:53;;;;;;;28.13;11.97;;;1.80;99.90;;;;;;5017975;28;20231;-83
2022/01/26 14:54:48;;;;;;;29.43;14.17;;;;;;;;;;5016189;28;20216;-82
2022/01/26 15:12:06;;;;;;;30.50;13.30;;;1.60;99.90;;;;;;5015898;28;20215;-81
2022/01/26 15:49:11;;;;;;;40.30;16.37;;;3.30;99.90;;;;;;5015613;28;20251;-82
2022/01/26 16:08:31;;;;;;;30.13;15.90;;;1.20;99.90;;;;;;4978418;28;20377;-82
2022/01/26 16:16:35;;;;;;;23.13;12.53;;;1.30;99.90;;;;;;5000850;28;20212;-81
2022/01/26 16:28:19;;;;;;;33.07;15.70;;;1.10;99.90;;;;;;5028719;28;20597;-82
2022/01/26 18:33:08;;;;;;;43.10;22.40;;;1.70;99.90;;;;;;5039206;28;20211;-83
2022/01/26 18:51:33;;;;;;;57.67;29.47;;;2.00;99.90;;;;;;5061793;28;20712;-83
2022/01/26 18:53:59;;;;;;;50.40;22.83;;;2.00;99.90;;;;;;5069675;28;20222;-83
2022/01/26 18:56:25;;;;;;;52.60;23.73;;;2.10;99.90;;;;;;5030653;28;20192;-81
2022/01/26 18:58:50;;;;;;;52.63;23.07;;;2.10;99.90;;;;;;5040004;28;20219;-81
2022/01/26 19:01:17;;;;;;;63.20;31.20;;;;;;;;;;5044810;28;20222;-82
2022/01/26 19:03:43;;;;;;;64.53;25.37;;;;;;;;;;5036927;28;20199;-83
2022/01/26 19:06:08;;;;;;;60.90;25.23;;;2.20;99.90;;;;;;5039065;28;20238;-82
2022/01/26 19:08:35;;;;;;;71.60;35.40;;;2.30;99.90;;;;;;5036577;28;20189;-82
2022/01/26 19:11:01;;;;;;;62.87;30.73;;;2.40;99.90;;;;;;5040310;28;20183;-83
2022/01/26 19:13:30;;;;;;;50.27;24.77;;;2.30;99.90;;;;;;5052060;28;20215;-84
2022/01/26 19:16:01;;;;;;;49.20;23.93;;;2.40;99.90;;;;;;5060738;28;20179;-86
2022/01/26 19:18:45;;;;;;;48.17;23.53;;;2.50;99.90;;;;;;5069325;28;20262;-84
2022/01/26 19:21:37;;;;;;;46.03;25.97;;;2.40;99.90;;;;;;5045921;28;20283;-86
2022/01/26 19:26:47;;;;;;;45.00;21.77;;;2.40;99.90;;;;;;5047934;28;20237;-82
2022/01/26 19:51:04;;;;;;;36.63;18.37;;;2.60;99.90;;;;;;5039716;28;20246;-84
2022/01/26 19:53:30;;;;;;;33.87;17.90;;;2.60;99.90;;;;;;5035944;28;20680;-82
2022/01/26 19:55:56;;;;;;;34.07;17.83;;;;;;;;;;5036883;28;20272;-83